Flight Track Log - Related Links

Times and Time Zones

All times are in EST time to prevent confusion due to time zone crossing. See the EJA951 flight status page for this flight to view local times or setup timezone preferences in your user account.

Time Position Orientation Groundspeed Altitude Reporting Facility
EST Latitude Longitude Course Direction KTS MPH feet Rate Location/Type
Mon 03:01:41 PM 28.4333 -81.3167 360° North 156 180 500  Level Orlando TRACON
Mon 03:02:35 PM 28.4833 -81.3167 360° North 225 259 3,300 3,105 Climbing Orlando TRACON
Mon 03:03:35 PM 28.5500 -81.3167 360° North 262 302 6,400 3,112 Climbing Orlando TRACON
Mon 03:05:42 PM 28.7122 -81.3303 356° North 285 328 13,000 2,342 Climbing Jacksonville Center
Mon 03:06:42 PM 28.8000 -81.3431 353° North 300 345 13,700 950 Climbing Jacksonville Center
Mon 03:07:42 PM 28.9044 -81.3581 353° North 338 389 14,900 1,250 Climbing Jacksonville Center
Mon 03:08:42 PM 29.0133 -81.3778 351° North 372 428 16,200 1,350 Climbing Jacksonville Center
Mon 03:09:42 PM 29.1219 -81.3950 352° North 389 448 17,600 1,250 Climbing Jacksonville Center
Mon 03:10:42 PM 29.2328 -81.4028 356° North 394 453 18,700 1,100 Climbing Jacksonville Center
Mon 03:11:42 PM 29.3478 -81.4156 354° North 399 459 19,800 1,050 Climbing Jacksonville Center
Mon 03:12:42 PM 29.4586 -81.4258 355° North 399 459 20,800 1,100 Climbing Jacksonville Center
Mon 03:13:42 PM 29.5756 -81.4408 354° North 411 473 22,000 1,250 Climbing Jacksonville Center
Mon 03:14:42 PM 29.6947 -81.4486 357° North 416 479 23,300 1,250 Climbing Jacksonville Center
Mon 03:15:42 PM 29.8139 -81.4611 355° North 423 487 24,500 1,300 Climbing Jacksonville Center
Mon 03:16:42 PM 29.9369 -81.4714 356° North 423 487 25,900 1,200 Climbing Jacksonville Center
Mon 03:17:42 PM 30.0603 -81.4839 355° North 430 495 26,900 1,000 Climbing Jacksonville Center
Mon 03:18:42 PM 30.1858 -81.4964 355° North 443 510 27,900 1,050 Climbing Jacksonville Center
Mon 03:19:42 PM 30.3133 -81.5067 356° North 448 516 29,000 1,050 Climbing Jacksonville Center
Mon 03:20:42 PM 30.4489 -81.5022 North 460 529 30,000 1,500 Climbing Jacksonville Center
Mon 03:21:42 PM 30.5825 -81.4906 North 465 535 32,000 2,450 Climbing Jacksonville Center
Mon 03:22:42 PM 30.7075 -81.4817 North 466 536 34,900 2,400 Climbing Jacksonville Center
Mon 03:23:42 PM 30.8264 -81.4725 North 445 512 36,800 1,900 Climbing Jacksonville Center
Mon 03:24:42 PM 30.9453 -81.4611 North 438 504 38,700 1,800 Climbing Jacksonville Center
Mon 03:25:42 PM 31.0686 -81.4519 North 438 504 40,400 1,150 Climbing Jacksonville Center
Mon 03:26:42 PM 31.1917 -81.4428 North 433 498 41,000 300 Climbing Jacksonville Center
Mon 03:27:42 PM 31.3208 -81.4236 North 453 521 41,000  Level Jacksonville Center
Mon 03:28:42 PM 31.4456 -81.3853 15° North 462 532 41,000  Level Jacksonville Center
Mon 03:29:42 PM 31.5642 -81.3539 13° North 470 541 41,000  Level Jacksonville Center
Mon 03:30:42 PM 31.6911 -81.3203 13° North 465 535 41,000  Level Jacksonville Center
Mon 03:31:42 PM 31.8306 -81.2836 13° North 465 535 41,000  Level Jacksonville Center
Mon 03:32:42 PM 31.9450 -81.2569 11° North 465 535 41,000  Level Jacksonville Center
Mon 03:33:42 PM 32.0700 -81.2206 14° North 465 535 41,000  Level Jacksonville Center
Mon 03:34:42 PM 32.1944 -81.1692 19° North 465 535 41,000  Level Jacksonville Center
Mon 03:35:42 PM 32.3103 -81.0933 29° Northeast 465 535 41,000  Level Jacksonville Center
Mon 03:36:42 PM 32.4261 -81.0172 29° Northeast 470 541 41,000  Level Jacksonville Center
Mon 03:37:42 PM 32.5397 -80.9408 30° Northeast 470 541 41,000  Level Jacksonville Center
Mon 03:38:42 PM 32.6575 -80.8594 30° Northeast 476 548 41,000  Level Jacksonville Center
Mon 03:39:42 PM 32.7731 -80.7828 29° Northeast 476 548 41,000  Level Jacksonville Center
Mon 03:40:42 PM 32.8908 -80.7056 29° Northeast 476 548 41,000 -1,150 Level Jacksonville Center
Mon 03:41:42 PM 33.0106 -80.6258 29° Northeast 481 554 38,700 -2,500 Descending Jacksonville Center
Mon 03:42:42 PM 33.1322 -80.5461 29° Northeast 487 560 36,000 -2,750 Descending Jacksonville Center
Mon 03:43:42 PM 33.2681 -80.4531 30° Northeast 492 566 33,200 -2,750 Descending Jacksonville Center
Mon 03:44:42 PM 33.3897 -80.3675 30° Northeast 499 574 30,500 -2,700 Descending Jacksonville Center
Mon 03:45:42 PM 33.5111 -80.2844 30° Northeast 499 574 27,800 -2,750 Descending Jacksonville Center
Mon 03:46:42 PM 33.6344 -80.2008 29° Northeast 494 568 25,000 -2,550 Descending Jacksonville Center
Mon 03:47:42 PM 33.7558 -80.1172 30° Northeast 494 568 22,700 -2,200 Descending Jacksonville Center
Mon 03:48:42 PM 33.8753 -80.0461 26° Northeast 494 568 20,600 -2,150 Descending Jacksonville Center
Mon 03:49:42 PM 33.9964 -80.0572 356° North 450 518 18,400 -1,300 Descending Jacksonville Center
Mon 03:50:42 PM 34.1164 -80.1058 341° North 432 497 18,000 -200 Descending Jacksonville Center
Mon 03:51:42 PM 34.2322 -80.1500 343° North 432 497 18,000 -50 Level Jacksonville Center
Mon 03:52:42 PM 34.3458 -80.1967 341° North 432 497 17,900 -1,342 Descending Jacksonville Center
Mon 03:54:14 PM 34.5147 -80.2675 341° North 396 456 14,600 -2,000 Descending Atlanta Center
Mon 03:55:15 PM 34.6058 -80.3064 341° North 328 377 12,800 -1,672 Descending Atlanta Center
Mon 03:56:16 PM 34.6839 -80.3381 342° North 296 341 11,200 -1,377 Descending Atlanta Center
Mon 03:57:17 PM 34.7381 -80.4067 314° West 273 314 10,000 -1,377 Descending Atlanta Center
Mon 03:58:18 PM 34.7697 -80.4911 295° West 282 325 8,400 -1,686 Descending Atlanta Center
Mon 03:59:18 PM 34.8081 -80.5856 296° West 284 327 6,600 -1,190 Descending Atlanta Center
Mon 04:00:19 PM 34.8375 -80.6706 293° West 280 322 6,000 -590 Descending Atlanta Center
Mon 04:01:20 PM 34.8792 -80.7447 304° West 267 307 5,400 -836 Descending Atlanta Center
Mon 04:02:21 PM 34.9267 -80.8111 311° West 263 303 4,300 -689 Descending Atlanta Center
Mon 04:03:22 PM 34.9806 -80.8725 317° Northwest 250 288 4,000 -148 Descending Atlanta Center
Mon 04:04:23 PM 35.0339 -80.9186 325° Northwest 233 268 4,000 -522 Level Atlanta Center
Mon 04:05:17 PM 35.0864 -80.9269 353° North 198 228 3,000 -1,043 Descending Atlanta Center
Mon 04:06:18 PM 35.1406 -80.9300 357° North 169 194 2,000 -844 Descending Atlanta Center
Mon 04:07:25 PM 35.1825 -80.9361 353° North 128 147 1,200 -716 Descending Atlanta Center
Mon 04:09:00 PM 35.2000 -80.9333 219° Southwest  Level FlightAware Approximate
Mon 04:16:00 PM 35.2137 -80.9491 219° Southwest  Level Estimated

Login

Don't have an account? Register now (free) for customized features, flight alerts, and more!